Time,TemperatureF,DewpointF,PressureIn,WindDirection,WindDirectionDegrees,WindSpeedMPH,WindSpeedGustMPH,Humidity,HourlyPrecipIn,Conditions,Clouds,dailyrainin,SoftwareType,DateUTC
2013-07-31 00:04:00,66.5,40.8,24.96,SSE,168,5.0,-999.0,39,-99.99,,,-99.99,dwt +perl,2013-07-31 07:04:00,
2013-07-31 00:09:00,66.4,40.7,24.95,SSE,166,3.0,-999.0,39,-99.99,,,-99.99,dwt +perl,2013-07-31 07:09:00,
2013-07-31 00:14:00,66.2,41.2,24.96,SSE,168,5.0,-999.0,40,-99.99,,,-99.99,dwt +perl,2013-07-31 07:14:00,
2013-07-31 00:19:00,66.3,40.6,24.96,SSE,168,3.0,-999.0,39,-99.99,,,-99.99,dwt +perl,2013-07-31 07:19:00,
2013-07-31 00:24:00,66.3,41.2,24.96,SSE,168,5.0,-999.0,40,-99.99,,,-99.99,dwt +perl,2013-07-31 07:24:00,
2013-07-31 00:29:00,66.2,41.2,24.95,SSE,168,5.0,-999.0,40,-99.99,,,-99.99,dwt +perl,2013-07-31 07:29:00,
2013-07-31 00:34:00,66.3,41.2,24.95,SSE,168,4.0,-999.0,40,-99.99,,,-99.99,dwt +perl,2013-07-31 07:34:00,
2013-07-31 00:39:00,66.3,41.9,24.95,North,359,5.0,-999.0,41,-99.99,,,-99.99,dwt +perl,2013-07-31 07:39:00,
2013-07-31 00:44:00,66.3,38.5,24.95,SSE,168,3.0,-999.0,36,-99.99,,,-99.99,dwt +perl,2013-07-31 07:44:00,
2013-07-31 00:49:00,66.5,33.3,24.95,South,170,5.0,-999.0,29,-99.99,,,-99.99,dwt +perl,2013-07-31 07:49:00,
2013-07-31 00:54:00,66.7,35.9,24.95,South,169,3.0,-999.0,32,-99.99,,,-99.99,dwt +perl,2013-07-31 07:54:00,
2013-07-31 00:59:00,66.8,36.0,24.95,SSE,164,5.0,-999.0,32,-99.99,,,-99.99,dwt +perl,2013-07-31 07:59:00,
2013-07-31 01:04:00,66.7,39.6,24.95,SSE,163,6.0,-999.0,37,-99.99,,,-99.99,dwt +perl,2013-07-31 08:04:00,
2013-07-31 01:09:00,66.6,39.5,24.95,SSE,168,5.0,-999.0,37,-99.99,,,-99.99,dwt +perl,2013-07-31 08:09:00,
2013-07-31 01:14:00,66.5,39.4,24.95,SSE,168,5.0,-999.0,37,-99.99,,,-99.99,dwt +perl,2013-07-31 08:14:00,
2013-07-31 01:19:00,66.3,38.5,24.95,SSE,167,4.0,-999.0,36,-99.99,,,-99.99,dwt +perl,2013-07-31 08:19:00,
2013-07-31 01:24:00,66.3,38.5,24.95,SSE,168,5.0,-999.0,36,-99.99,,,-99.99,dwt +perl,2013-07-31 08:24:00,
2013-07-31 01:29:00,66.4,37.9,24.95,SSE,168,3.0,-999.0,35,-99.99,,,-99.99,dwt +perl,2013-07-31 08:29:00,
2013-07-31 01:34:00,66.4,37.9,24.95,SSE,168,0.0,-999.0,35,-99.99,,,-99.99,dwt +perl,2013-07-31 08:34:00,
2013-07-31 01:39:00,66.2,38.5,24.95,SSE,168,0.0,-999.0,36,-99.99,,,-99.99,dwt +perl,2013-07-31 08:39:00,
2013-07-31 01:44:00,66.1,32.0,24.95,SSE,168,1.0,-999.0,28,-99.99,,,-99.99,dwt +perl,2013-07-31 08:44:00,
2013-07-31 01:49:00,66.2,36.2,24.94,SSE,168,2.0,-999.0,33,-99.99,,,-99.99,dwt +perl,2013-07-31 08:49:00,
2013-07-31 01:54:00,66.3,34.8,24.94,SSE,168,4.0,-999.0,31,-99.99,,,-99.99,dwt +perl,2013-07-31 08:54:00,
2013-07-31 01:59:00,66.5,30.5,24.94,South,170,4.0,-999.0,26,-99.99,,,-99.99,dwt +perl,2013-07-31 08:59:00,
2013-07-31 02:04:00,66.5,27.6,24.94,South,170,2.0,-999.0,23,-99.99,,,-99.99,dwt +perl,2013-07-31 09:04:00,
2013-07-31 02:09:00,66.7,27.7,24.94,South,172,3.0,-999.0,23,-99.99,,,-99.99,dwt +perl,2013-07-31 09:09:00,
2013-07-31 02:14:00,66.9,29.9,24.94,South,172,1.0,-999.0,25,-99.99,,,-99.99,dwt +perl,2013-07-31 09:14:00,
2013-07-31 02:19:00,66.8,28.9,24.95,South,172,1.0,-999.0,24,-99.99,,,-99.99,dwt +perl,2013-07-31 09:19:00,
2013-07-31 02:24:00,66.7,28.8,24.94,South,172,5.0,-999.0,24,-99.99,,,-99.99,dwt +perl,2013-07-31 09:24:00,
2013-07-31 02:29:00,66.5,29.6,24.94,South,172,6.0,-999.0,25,-99.99,,,-99.99,dwt +perl,2013-07-31 09:29:00,
2013-07-31 02:34:00,66.4,29.5,24.94,South,172,6.0,-999.0,25,-99.99,,,-99.99,dwt +perl,2013-07-31 09:34:00,
2013-07-31 02:39:00,66.5,30.5,24.94,South,172,6.0,-999.0,26,-99.99,,,-99.99,dwt +perl,2013-07-31 09:39:00,
2013-07-31 02:44:00,66.4,28.5,24.94,South,172,5.0,-999.0,24,-99.99,,,-99.99,dwt +perl,2013-07-31 09:44:00,
2013-07-31 02:49:00,66.4,32.3,24.94,South,172,5.0,-999.0,28,-99.99,,,-99.99,dwt +perl,2013-07-31 09:49:00,
2013-07-31 02:54:00,66.3,31.3,24.94,South,172,5.0,-999.0,27,-99.99,,,-99.99,dwt +perl,2013-07-31 09:54:00,
2013-07-31 02:59:00,66.3,31.3,24.94,South,173,6.0,-999.0,27,-99.99,,,-99.99,dwt +perl,2013-07-31 09:59:00,
2013-07-31 03:04:00,66.5,27.6,24.94,South,174,5.0,-999.0,23,-99.99,,,-99.99,dwt +perl,2013-07-31 10:04:00,
2013-07-31 03:09:00,66.6,26.6,24.94,South,174,5.0,-999.0,22,-99.99,,,-99.99,dwt +perl,2013-07-31 10:09:00,
2013-07-31 03:14:00,66.4,34.8,24.94,South,174,5.0,-999.0,31,-99.99,,,-99.99,dwt +perl,2013-07-31 10:14:00,
2013-07-31 03:19:00,65.9,35.2,24.94,South,176,3.0,-999.0,32,-99.99,,,-99.99,dwt +perl,2013-07-31 10:19:00,
2013-07-31 03:24:00,65.5,37.1,24.94,SW,216,4.0,-999.0,35,-99.99,,,-99.99,dwt +perl,2013-07-31 10:24:00,
2013-07-31 03:29:00,65.3,37.7,24.94,SW,230,7.0,-999.0,36,-99.99,,,-99.99,dwt +perl,2013-07-31 10:29:00,
2013-07-31 03:34:00,65.3,36.2,24.94,SW,230,7.0,-999.0,34,-99.99,,,-99.99,dwt +perl,2013-07-31 10:34:00,
2013-07-31 03:39:00,65.3,35.5,24.94,SW,230,6.0,-999.0,33,-99.99,,,-99.99,dwt +perl,2013-07-31 10:39:00,
2013-07-31 03:44:00,65.2,36.1,24.94,SW,229,7.0,-999.0,34,-99.99,,,-99.99,dwt +perl,2013-07-31 10:44:00,
2013-07-31 03:49:00,65.2,36.1,24.94,SW,230,6.0,-999.0,34,-99.99,,,-99.99,dwt +perl,2013-07-31 10:49:00,
2013-07-31 04:04:00,65.1,36.0,24.94,SW,230,6.0,-999.0,34,-99.99,,,-99.99,dwt +perl,2013-07-31 11:04:00,
2013-07-31 04:09:00,65.1,36.8,24.94,SW,229,7.0,-999.0,35,-99.99,,,-99.99,dwt +perl,2013-07-31 11:09:00,
2013-07-31 04:14:00,65.1,34.5,24.94,SW,229,6.0,-999.0,32,-99.99,,,-99.99,dwt +perl,2013-07-31 11:14:00,
2013-07-31 04:19:00,65.6,31.6,24.94,SW,215,7.0,-999.0,28,-99.99,,,-99.99,dwt +perl,2013-07-31 11:19:00,
2013-07-31 04:24:00,65.6,32.5,24.94,SW,217,7.0,-999.0,29,-99.99,,,-99.99,dwt +perl,2013-07-31 11:24:00,
2013-07-31 04:34:00,65.7,33.4,24.94,SW,223,8.0,-999.0,30,-99.99,,,-99.99,dwt +perl,2013-07-31 11:34:00,
2013-07-31 04:39:00,65.6,26.8,24.94,SW,222,7.0,-999.0,23,-99.99,,,-99.99,dwt +perl,2013-07-31 11:39:00,
2013-07-31 04:44:00,66.1,32.0,24.94,WSW,239,7.0,-999.0,28,-99.99,,,-99.99,dwt +perl,2013-07-31 11:44:00,
2013-07-31 04:54:00,65.4,31.4,24.94,SW,226,9.0,-999.0,28,-99.99,,,-99.99,dwt +perl,2013-07-31 11:54:00,
2013-07-31 04:59:00,65.8,34.3,24.94,WSW,239,7.0,-999.0,31,-99.99,,,-99.99,dwt +perl,2013-07-31 11:59:00,
2013-07-31 05:04:00,65.2,33.0,24.94,SW,224,8.0,-999.0,30,-99.99,,,-99.99,dwt +perl,2013-07-31 12:04:00,
2013-07-31 05:19:00,65.4,28.7,24.94,SW,224,8.0,-999.0,25,-99.99,,,-99.99,dwt +perl,2013-07-31 12:19:00,
2013-07-31 05:24:00,65.6,28.8,24.94,SW,224,6.0,-999.0,25,-99.99,,,-99.99,dwt +perl,2013-07-31 12:24:00,
2013-07-31 05:34:00,65.7,21.0,24.95,SW,224,7.0,-999.0,18,-99.99,,,-99.99,dwt +perl,2013-07-31 12:34:00,
2013-07-31 05:39:00,65.9,23.7,24.95,SW,226,7.0,-999.0,20,-99.99,,,-99.99,dwt +perl,2013-07-31 12:39:00,
2013-07-31 05:44:00,65.9,26.0,24.95,SW,225,6.0,-999.0,22,-99.99,,,-99.99,dwt +perl,2013-07-31 12:44:00,
2013-07-31 05:59:00,65.8,24.8,24.95,SW,225,6.0,-999.0,21,-99.99,,,-99.99,dwt +perl,2013-07-31 12:59:00,
2013-07-31 06:04:00,65.8,24.8,24.95,SW,225,6.0,-999.0,21,-99.99,,,-99.99,dwt +perl,2013-07-31 13:04:00,
2013-07-31 06:14:00,66.0,22.6,24.95,SW,225,5.0,-999.0,19,-99.99,,,-99.99,dwt +perl,2013-07-31 13:14:00,
2013-07-31 06:19:00,66.1,21.4,24.95,SW,225,5.0,-999.0,18,-99.99,,,-99.99,dwt +perl,2013-07-31 13:19:00,
2013-07-31 06:24:00,66.3,18.8,24.95,SW,226,5.0,-999.0,16,-99.99,,,-99.99,dwt +perl,2013-07-31 13:24:00,
2013-07-31 06:29:00,66.5,17.4,24.95,SW,225,6.0,-999.0,15,-99.99,,,-99.99,dwt +perl,2013-07-31 13:29:00,
2013-07-31 06:34:00,66.6,21.8,24.96,SW,225,5.0,-999.0,18,-99.99,,,-99.99,dwt +perl,2013-07-31 13:34:00,
2013-07-31 06:39:00,66.6,19.0,24.96,SW,225,4.0,-999.0,16,-99.99,,,-99.99,dwt +perl,2013-07-31 13:39:00,
2013-07-31 06:54:00,66.8,20.6,24.96,SW,225,5.0,-999.0,17,-99.99,,,-99.99,dwt +perl,2013-07-31 13:54:00,
2013-07-31 06:59:00,66.8,21.9,24.96,SW,225,4.0,-999.0,18,-99.99,,,-99.99,dwt +perl,2013-07-31 13:59:00,
2013-07-31 07:04:00,66.9,19.2,24.96,SW,225,5.0,-999.0,16,-99.99,,,-99.99,dwt +perl,2013-07-31 14:04:00,
2013-07-31 07:09:00,66.9,19.2,24.96,SW,225,5.0,-999.0,16,-99.99,,,-99.99,dwt +perl,2013-07-31 14:09:00,
2013-07-31 07:14:00,67.0,20.8,24.96,SW,225,4.0,-999.0,17,-99.99,,,-99.99,dwt +perl,2013-07-31 14:14:00,
2013-07-31 07:19:00,67.1,17.9,24.96,SW,225,3.0,-999.0,15,-99.99,,,-99.99,dwt +perl,2013-07-31 14:19:00,
2013-07-31 07:24:00,67.2,19.5,24.96,SW,225,0.0,-999.0,16,-99.99,,,-99.99,dwt +perl,2013-07-31 14:24:00,
2013-07-31 07:29:00,67.2,19.5,24.96,SW,225,1.0,-999.0,16,-99.99,,,-99.99,dwt +perl,2013-07-31 14:29:00,
2013-07-31 07:39:00,67.9,17.0,24.96,SW,225,3.0,-999.0,14,-99.99,,,-99.99,dwt +perl,2013-07-31 14:39:00,
2013-07-31 07:44:00,67.7,15.1,24.96,SW,225,3.0,-999.0,13,-99.99,,,-99.99,dwt +perl,2013-07-31 14:44:00,
2013-07-31 07:54:00,68.0,18.6,24.96,SW,225,4.0,-999.0,15,-99.99,,,-99.99,dwt +perl,2013-07-31 14:54:00,
2013-07-31 07:59:00,68.1,18.7,24.97,SW,225,5.0,-999.0,15,-99.99,,,-99.99,dwt +perl,2013-07-31 14:59:00,
2013-07-31 08:04:00,68.3,20.4,24.97,SW,225,2.0,-999.0,16,-99.99,,,-99.99,dwt +perl,2013-07-31 15:04:00,
2013-07-31 08:09:00,68.4,21.9,24.97,SW,225,1.0,-999.0,17,-99.99,,,-99.99,dwt +perl,2013-07-31 15:09:00,
2013-07-31 08:14:00,68.5,22.0,24.97,SW,225,3.0,-999.0,17,-99.99,,,-99.99,dwt +perl,2013-07-31 15:14:00,
2013-07-31 08:19:00,68.6,22.0,24.97,SW,225,2.0,-999.0,17,-99.99,,,-99.99,dwt +perl,2013-07-31 15:19:00,
2013-07-31 08:24:00,68.8,23.6,24.97,SW,226,2.0,-999.0,18,-99.99,,,-99.99,dwt +perl,2013-07-31 15:24:00,
2013-07-31 08:29:00,68.9,23.6,24.97,SW,225,3.0,-999.0,18,-99.99,,,-99.99,dwt +perl,2013-07-31 15:29:00,
2013-07-31 08:44:00,69.4,25.4,24.97,SW,225,1.0,-999.0,19,-99.99,,,-99.99,dwt +perl,2013-07-31 15:44:00,
2013-07-31 08:54:00,69.6,24.2,24.97,SW,225,1.0,-999.0,18,-99.99,,,-99.99,dwt +perl,2013-07-31 15:54:00,
2013-07-31 08:59:00,69.8,23.0,24.97,SW,225,0.0,-999.0,17,-99.99,,,-99.99,dwt +perl,2013-07-31 15:59:00,
2013-07-31 09:04:00,70.1,24.6,24.98,SW,226,0.0,-999.0,18,-99.99,,,-99.99,dwt +perl,2013-07-31 16:04:00,
2013-07-31 09:09:00,70.4,23.5,24.98,SW,225,1.0,-999.0,17,-99.99,,,-99.99,dwt +perl,2013-07-31 16:09:00,
2013-07-31 09:14:00,70.8,26.5,24.98,SW,225,0.0,-999.0,19,-99.99,,,-99.99,dwt +perl,2013-07-31 16:14:00,
2013-07-31 09:19:00,71.7,35.9,24.98,SW,225,0.0,-999.0,27,-99.99,,,-99.99,dwt +perl,2013-07-31 16:19:00,
2013-07-31 09:24:00,72.3,32.4,24.97,SW,225,0.0,-999.0,23,-99.99,,,-99.99,dwt +perl,2013-07-31 16:24:00,
2013-07-31 09:29:00,72.8,40.4,24.97,SW,225,1.0,-999.0,31,-99.99,,,-99.99,dwt +perl,2013-07-31 16:29:00,
2013-07-31 09:39:00,73.6,39.4,24.97,SW,225,0.0,-999.0,29,-99.99,,,-99.99,dwt +perl,2013-07-31 16:39:00,
2013-07-31 09:44:00,73.2,37.2,24.97,SW,225,0.0,-999.0,27,-99.99,,,-99.99,dwt +perl,2013-07-31 16:44:00,
2013-07-31 09:49:00,73.3,40.8,24.97,SW,225,0.0,-999.0,31,-99.99,,,-99.99,dwt +perl,2013-07-31 16:49:00,
2013-07-31 09:54:00,73.8,34.7,24.97,SW,226,0.0,-999.0,24,-99.99,,,-99.99,dwt +perl,2013-07-31 16:54:00,
2013-07-31 09:59:00,73.7,32.5,24.97,SW,225,0.0,-999.0,22,-99.99,,,-99.99,dwt +perl,2013-07-31 16:59:00,
2013-07-31 10:04:00,73.7,36.7,24.97,SW,225,0.0,-999.0,26,-99.99,,,-99.99,dwt +perl,2013-07-31 17:04:00,
2013-07-31 10:09:00,74.0,39.7,24.97,SW,225,0.0,-999.0,29,-99.99,,,-99.99,dwt +perl,2013-07-31 17:09:00,
2013-07-31 10:19:00,74.8,39.5,24.97,SW,225,0.0,-999.0,28,-99.99,,,-99.99,dwt +perl,2013-07-31 17:19:00,
2013-07-31 10:24:00,74.9,39.6,24.98,SW,225,1.0,-999.0,28,-99.99,,,-99.99,dwt +perl,2013-07-31 17:24:00,
2013-07-31 10:29:00,75.0,38.7,24.97,SW,225,0.0,-999.0,27,-99.99,,,-99.99,dwt +perl,2013-07-31 17:29:00,
2013-07-31 10:34:00,75.2,38.9,24.98,SW,225,0.0,-999.0,27,-99.99,,,-99.99,dwt +perl,2013-07-31 17:34:00,
2013-07-31 10:39:00,75.3,39.0,24.98,SW,225,0.0,-999.0,27,-99.99,,,-99.99,dwt +perl,2013-07-31 17:39:00,
2013-07-31 10:44:00,75.8,39.4,24.98,SW,225,0.0,-999.0,27,-99.99,,,-99.99,dwt +perl,2013-07-31 17:44:00,
2013-07-31 10:49:00,76.0,38.6,24.98,SW,226,0.0,-999.0,26,-99.99,,,-99.99,dwt +perl,2013-07-31 17:49:00,
2013-07-31 10:54:00,76.1,39.7,24.98,SW,225,0.0,-999.0,27,-99.99,,,-99.99,dwt +perl,2013-07-31 17:54:00,
2013-07-31 10:59:00,76.3,39.8,24.98,SW,225,0.0,-999.0,27,-99.99,,,-99.99,dwt +perl,2013-07-31 17:59:00,
2013-07-31 11:04:00,76.4,39.0,24.98,SW,225,0.0,-999.0,26,-99.99,,,-99.99,dwt +perl,2013-07-31 18:04:00,
2013-07-31 11:09:00,75.7,39.3,24.98,SW,225,0.0,-999.0,27,-99.99,,,-99.99,dwt +perl,2013-07-31 18:09:00,
2013-07-31 11:14:00,75.6,40.2,24.98,SW,226,0.0,-999.0,28,-99.99,,,-99.99,dwt +perl,2013-07-31 18:14:00,
2013-07-31 11:19:00,75.4,40.0,24.98,SW,225,0.0,-999.0,28,-99.99,,,-99.99,dwt +perl,2013-07-31 18:19:00,
2013-07-31 11:24:00,75.4,40.0,24.98,SW,225,2.0,-999.0,28,-99.99,,,-99.99,dwt +perl,2013-07-31 18:24:00,
2013-07-31 11:29:00,75.6,40.2,24.98,SW,225,0.0,-999.0,28,-99.99,,,-99.99,dwt +perl,2013-07-31 18:29:00,
2013-07-31 11:34:00,75.8,40.3,24.98,SW,225,1.0,-999.0,28,-99.99,,,-99.99,dwt +perl,2013-07-31 18:34:00,
2013-07-31 11:39:00,76.4,39.0,24.98,SW,225,0.0,-999.0,26,-99.99,,,-99.99,dwt +perl,2013-07-31 18:39:00,
2013-07-31 11:44:00,76.8,39.3,24.98,SW,225,2.0,-999.0,26,-99.99,,,-99.99,dwt +perl,2013-07-31 18:44:00,
2013-07-31 11:49:00,77.0,40.4,24.98,SW,225,0.0,-999.0,27,-99.99,,,-99.99,dwt +perl,2013-07-31 18:49:00,
2013-07-31 11:54:00,77.4,38.8,24.98,SW,225,2.0,-999.0,25,-99.99,,,-99.99,dwt +perl,2013-07-31 18:54:00,
2013-07-31 11:59:00,77.7,39.1,24.97,SW,225,0.0,-999.0,25,-99.99,,,-99.99,dwt +perl,2013-07-31 18:59:00,
2013-07-31 12:04:00,78.0,39.3,24.97,SW,225,0.0,-999.0,25,-99.99,,,-99.99,dwt +perl,2013-07-31 19:04:00,
2013-07-31 12:09:00,77.7,38.0,24.97,SW,225,0.0,-999.0,24,-99.99,,,-99.99,dwt +perl,2013-07-31 19:09:00,
2013-07-31 12:14:00,77.7,39.1,24.97,SW,225,1.0,-999.0,25,-99.99,,,-99.99,dwt +perl,2013-07-31 19:14:00,
2013-07-31 12:19:00,77.2,38.6,24.97,SW,225,1.0,-999.0,25,-99.99,,,-99.99,dwt +perl,2013-07-31 19:19:00,
2013-07-31 12:24:00,77.3,37.7,24.97,SW,215,0.0,-999.0,24,-99.99,,,-99.99,dwt +perl,2013-07-31 19:24:00,
2013-07-31 12:29:00,77.4,39.8,24.97,SW,215,0.0,-999.0,26,-99.99,,,-99.99,dwt +perl,2013-07-31 19:29:00,
2013-07-31 12:34:00,77.6,37.9,24.97,SW,215,0.0,-999.0,24,-99.99,,,-99.99,dwt +perl,2013-07-31 19:34:00,
2013-07-31 12:39:00,78.0,39.3,24.97,SW,215,2.0,-999.0,25,-99.99,,,-99.99,dwt +perl,2013-07-31 19:39:00,
2013-07-31 12:44:00,77.8,39.1,24.97,SW,215,0.0,-999.0,25,-99.99,,,-99.99,dwt +perl,2013-07-31 19:44:00,
2013-07-31 12:49:00,77.8,39.1,24.97,SW,215,3.0,-999.0,25,-99.99,,,-99.99,dwt +perl,2013-07-31 19:49:00,
2013-07-31 12:54:00,77.6,41.0,24.97,SW,215,0.0,-999.0,27,-99.99,,,-99.99,dwt +perl,2013-07-31 19:54:00,
2013-07-31 12:59:00,77.9,38.2,24.97,SW,215,0.0,-999.0,24,-99.99,,,-99.99,dwt +perl,2013-07-31 19:59:00,
2013-07-31 13:04:00,77.8,40.2,24.97,South,187,2.0,-999.0,26,-99.99,,,-99.99,dwt +perl,2013-07-31 20:04:00,
2013-07-31 13:09:00,77.6,41.0,24.96,SE,145,4.0,-999.0,27,-99.99,,,-99.99,dwt +perl,2013-07-31 20:09:00,
2013-07-31 13:14:00,77.0,39.5,24.97,SE,145,3.0,-999.0,26,-99.99,,,-99.99,dwt +perl,2013-07-31 20:14:00,
2013-07-31 13:19:00,77.0,38.5,24.97,SSE,155,1.0,-999.0,25,-99.99,,,-99.99,dwt +perl,2013-07-31 20:19:00,
2013-07-31 13:24:00,76.5,35.9,24.96,South,183,2.0,-999.0,23,-99.99,,,-99.99,dwt +perl,2013-07-31 20:24:00,
2013-07-31 13:29:00,75.5,36.2,24.97,South,187,0.0,-999.0,24,-99.99,,,-99.99,dwt +perl,2013-07-31 20:29:00,
2013-07-31 13:34:00,75.2,37.0,24.96,SSW,197,2.0,-999.0,25,-99.99,,,-99.99,dwt +perl,2013-07-31 20:34:00,
2013-07-31 13:39:00,74.8,37.6,24.96,SSW,207,4.0,-999.0,26,-99.99,,,-99.99,dwt +perl,2013-07-31 20:39:00,
2013-07-31 13:44:00,74.9,37.7,24.96,SW,223,1.0,-999.0,26,-99.99,,,-99.99,dwt +perl,2013-07-31 20:44:00,
2013-07-31 13:49:00,75.0,37.8,24.97,SW,223,1.0,-999.0,26,-99.99,,,-99.99,dwt +perl,2013-07-31 20:49:00,
2013-07-31 13:54:00,74.9,36.7,24.97,SW,224,2.0,-999.0,25,-99.99,,,-99.99,dwt +perl,2013-07-31 20:54:00,
2013-07-31 13:59:00,75.0,37.8,24.96,SW,224,1.0,-999.0,26,-99.99,,,-99.99,dwt +perl,2013-07-31 20:59:00,
2013-07-31 14:04:00,74.4,38.2,24.96,SW,225,0.0,-999.0,27,-99.99,,,-99.99,dwt +perl,2013-07-31 21:04:00,
2013-07-31 14:09:00,74.7,38.5,24.96,SW,225,1.0,-999.0,27,-99.99,,,-99.99,dwt +perl,2013-07-31 21:09:00,
2013-07-31 14:14:00,75.5,39.2,24.96,SW,225,3.0,-999.0,27,-99.99,,,-99.99,dwt +perl,2013-07-31 21:14:00,
2013-07-31 14:19:00,74.8,39.5,24.96,WSW,239,2.0,-999.0,28,-99.99,,,-99.99,dwt +perl,2013-07-31 21:19:00,
2013-07-31 14:24:00,74.9,38.7,24.96,WSW,243,3.0,-999.0,27,-99.99,,,-99.99,dwt +perl,2013-07-31 21:24:00,
2013-07-31 14:29:00,74.3,40.0,24.96,WSW,243,2.0,-999.0,29,-99.99,,,-99.99,dwt +perl,2013-07-31 21:29:00,
2013-07-31 14:34:00,74.5,40.1,24.96,West,259,2.0,-999.0,29,-99.99,,,-99.99,dwt +perl,2013-07-31 21:34:00,
2013-07-31 14:39:00,75.1,39.8,24.96,SW,231,4.0,-999.0,28,-99.99,,,-99.99,dwt +perl,2013-07-31 21:39:00,
2013-07-31 14:44:00,74.4,39.2,24.96,SSW,201,4.0,-999.0,28,-99.99,,,-99.99,dwt +perl,2013-07-31 21:44:00,
2013-07-31 14:49:00,74.3,39.1,24.96,SW,219,5.0,-999.0,28,-99.99,,,-99.99,dwt +perl,2013-07-31 21:49:00,
2013-07-31 14:54:00,74.4,40.9,24.95,SW,231,5.0,-999.0,30,-99.99,,,-99.99,dwt +perl,2013-07-31 21:54:00,
2013-07-31 15:04:00,75.1,41.5,24.95,West,266,5.0,-999.0,30,-99.99,,,-99.99,dwt +perl,2013-07-31 22:04:00,
2013-07-31 15:09:00,74.6,41.1,24.95,SW,220,5.0,-999.0,30,-99.99,,,-99.99,dwt +perl,2013-07-31 22:09:00,
2013-07-31 15:14:00,74.0,40.6,24.95,WSW,240,7.0,-999.0,30,-99.99,,,-99.99,dwt +perl,2013-07-31 22:14:00,
2013-07-31 15:19:00,73.3,41.6,24.95,WSW,239,7.0,-999.0,32,-99.99,,,-99.99,dwt +perl,2013-07-31 22:19:00,
2013-07-31 15:24:00,72.8,40.4,24.95,WSW,237,12.0,-999.0,31,-99.99,,,-99.99,dwt +perl,2013-07-31 22:24:00,
2013-07-31 15:29:00,72.2,41.5,24.95,SW,223,7.0,-999.0,33,-99.99,,,-99.99,dwt +perl,2013-07-31 22:29:00,
2013-07-31 15:34:00,72.1,40.6,24.95,South,190,7.0,-999.0,32,-99.99,,,-99.99,dwt +perl,2013-07-31 22:34:00,
2013-07-31 15:39:00,72.7,40.3,24.95,SSW,203,5.0,-999.0,31,-99.99,,,-99.99,dwt +perl,2013-07-31 22:39:00,
2013-07-31 15:44:00,72.7,41.1,24.94,WSW,249,9.0,-999.0,32,-99.99,,,-99.99,dwt +perl,2013-07-31 22:44:00,
2013-07-31 15:49:00,72.3,40.0,24.94,WSW,239,10.0,-999.0,31,-99.99,,,-99.99,dwt +perl,2013-07-31 22:49:00,
2013-07-31 15:54:00,72.4,40.9,24.94,WSW,243,8.0,-999.0,32,-99.99,,,-99.99,dwt +perl,2013-07-31 22:54:00,
2013-07-31 15:59:00,71.7,40.2,24.94,WNW,287,6.0,-999.0,32,-99.99,,,-99.99,dwt +perl,2013-07-31 22:59:00,
2013-07-31 16:04:00,71.2,40.6,24.94,SW,225,9.0,-999.0,33,-99.99,,,-99.99,dwt +perl,2013-07-31 23:04:00,
2013-07-31 16:09:00,70.9,40.3,24.94,WSW,240,8.0,-999.0,33,-99.99,,,-99.99,dwt +perl,2013-07-31 23:09:00,
2013-07-31 16:14:00,70.7,40.2,24.94,WSW,251,5.0,-999.0,33,-99.99,,,-99.99,dwt +perl,2013-07-31 23:14:00,
2013-07-31 16:19:00,71.1,40.5,24.94,WSW,253,6.0,-999.0,33,-99.99,,,-99.99,dwt +perl,2013-07-31 23:19:00,
2013-07-31 16:24:00,71.0,40.4,24.94,WSW,249,6.0,-999.0,33,-99.99,,,-99.99,dwt +perl,2013-07-31 23:24:00,
2013-07-31 16:29:00,70.7,40.9,24.94,SSW,195,7.0,-999.0,34,-99.99,,,-99.99,dwt +perl,2013-07-31 23:29:00,
2013-07-31 16:34:00,70.2,40.5,24.94,SW,218,9.0,-999.0,34,-99.99,,,-99.99,dwt +perl,2013-07-31 23:34:00,
2013-07-31 16:39:00,69.9,39.5,24.94,SW,219,12.0,-999.0,33,-99.99,,,-99.99,dwt +perl,2013-07-31 23:39:00,
2013-07-31 16:44:00,69.4,39.0,24.94,SSW,197,7.0,-999.0,33,-99.99,,,-99.99,dwt +perl,2013-07-31 23:44:00,
2013-07-31 16:49:00,69.6,38.4,24.94,SSW,201,8.0,-999.0,32,-99.99,,,-99.99,dwt +perl,2013-07-31 23:49:00,
2013-07-31 16:54:00,69.1,39.5,24.94,SW,225,10.0,-999.0,34,-99.99,,,-99.99,dwt +perl,2013-07-31 23:54:00,
2013-07-31 16:59:00,69.0,39.5,24.94,SW,214,9.0,-999.0,34,-99.99,,,-99.99,dwt +perl,2013-07-31 23:59:00,
2013-07-31 17:04:00,69.2,39.6,24.94,WSW,253,7.0,-999.0,34,-99.99,,,-99.99,dwt +perl,2013-08-01 00:04:00,
2013-07-31 17:09:00,68.6,39.1,24.94,WSW,252,7.0,-999.0,34,-99.99,,,-99.99,dwt +perl,2013-08-01 00:09:00,
2013-07-31 17:14:00,68.2,38.8,24.94,SW,222,8.0,-999.0,34,-99.99,,,-99.99,dwt +perl,2013-08-01 00:14:00,
2013-07-31 17:19:00,68.1,37.9,24.94,WSW,251,7.0,-999.0,33,-99.99,,,-99.99,dwt +perl,2013-08-01 00:19:00,
2013-07-31 17:24:00,67.7,39.0,24.94,SW,218,13.0,-999.0,35,-99.99,,,-99.99,dwt +perl,2013-08-01 00:24:00,
2013-07-31 17:29:00,67.9,40.0,24.94,SW,226,9.0,-999.0,36,-99.99,,,-99.99,dwt +perl,2013-08-01 00:29:00,
2013-07-31 17:34:00,68.7,39.9,24.94,SW,218,10.0,-999.0,35,-99.99,,,-99.99,dwt +perl,2013-08-01 00:34:00,
2013-07-31 17:39:00,68.5,39.8,24.94,WSW,245,9.0,-999.0,35,-99.99,,,-99.99,dwt +perl,2013-08-01 00:39:00,
2013-07-31 17:44:00,67.9,40.0,24.93,SW,228,8.0,-999.0,36,-99.99,,,-99.99,dwt +perl,2013-08-01 00:44:00,
2013-07-31 17:49:00,67.9,40.0,24.93,WSW,237,10.0,-999.0,36,-99.99,,,-99.99,dwt +perl,2013-08-01 00:49:00,
2013-07-31 17:54:00,67.4,38.8,24.93,SW,225,10.0,-999.0,35,-99.99,,,-99.99,dwt +perl,2013-08-01 00:54:00,
2013-07-31 17:59:00,66.8,38.3,24.93,WSW,247,9.0,-999.0,35,-99.99,,,-99.99,dwt +perl,2013-08-01 00:59:00,
2013-07-31 18:04:00,66.1,37.6,24.93,SW,228,10.0,-999.0,35,-99.99,,,-99.99,dwt +perl,2013-08-01 01:04:00,
2013-07-31 18:09:00,66.0,38.3,24.93,SW,233,11.0,-999.0,36,-99.99,,,-99.99,dwt +perl,2013-08-01 01:09:00,
2013-07-31 18:14:00,65.7,38.0,24.93,SW,233,12.0,-999.0,36,-99.99,,,-99.99,dwt +perl,2013-08-01 01:14:00,
2013-07-31 18:19:00,65.6,37.9,24.93,West,261,7.0,-999.0,36,-99.99,,,-99.99,dwt +perl,2013-08-01 01:19:00,
2013-07-31 18:24:00,65.0,36.7,24.93,West,262,7.0,-999.0,35,-99.99,,,-99.99,dwt +perl,2013-08-01 01:24:00,
2013-07-31 18:29:00,65.0,36.7,24.93,WSW,239,11.0,-999.0,35,-99.99,,,-99.99,dwt +perl,2013-08-01 01:29:00,
2013-07-31 18:34:00,65.0,36.7,24.93,West,269,10.0,-999.0,35,-99.99,,,-99.99,dwt +perl,2013-08-01 01:34:00,
2013-07-31 18:39:00,64.5,36.2,24.93,WSW,250,9.0,-999.0,35,-99.99,,,-99.99,dwt +perl,2013-08-01 01:39:00,
2013-07-31 18:44:00,64.2,36.0,24.93,WSW,258,7.0,-999.0,35,-99.99,,,-99.99,dwt +perl,2013-08-01 01:44:00,
2013-07-31 18:49:00,63.8,36.3,24.93,West,270,10.0,-999.0,36,-99.99,,,-99.99,dwt +perl,2013-08-01 01:49:00,
2013-07-31 18:54:00,63.2,35.8,24.93,WSW,256,9.0,-999.0,36,-99.99,,,-99.99,dwt +perl,2013-08-01 01:54:00,
2013-07-31 18:59:00,63.2,35.1,24.93,WSW,247,9.0,-999.0,35,-99.99,,,-99.99,dwt +perl,2013-08-01 01:59:00,
2013-07-31 19:04:00,62.9,34.1,24.93,WSW,251,11.0,-999.0,34,-99.99,,,-99.99,dwt +perl,2013-08-01 02:04:00,
2013-07-31 19:09:00,62.5,33.0,24.93,WSW,240,14.0,-999.0,33,-99.99,,,-99.99,dwt +perl,2013-08-01 02:09:00,
2013-07-31 19:14:00,62.4,32.2,24.93,WSW,252,8.0,-999.0,32,-99.99,,,-99.99,dwt +perl,2013-08-01 02:14:00,
2013-07-31 19:19:00,62.3,30.5,24.93,WSW,256,11.0,-999.0,30,-99.99,,,-99.99,dwt +perl,2013-08-01 02:19:00,
2013-07-31 19:29:00,62.4,27.1,24.93,West,278,13.0,-999.0,26,-99.99,,,-99.99,dwt +perl,2013-08-01 02:29:00,
2013-07-31 19:34:00,62.6,26.3,24.94,West,272,11.0,-999.0,25,-99.99,,,-99.99,dwt +perl,2013-08-01 02:34:00,
2013-07-31 19:39:00,62.6,26.3,24.93,WNW,291,10.0,-999.0,25,-99.99,,,-99.99,dwt +perl,2013-08-01 02:39:00,
2013-07-31 19:44:00,62.6,24.3,24.94,West,274,14.0,-999.0,23,-99.99,,,-99.99,dwt +perl,2013-08-01 02:44:00,
2013-07-31 19:49:00,62.5,23.1,24.93,West,264,12.0,-999.0,22,-99.99,,,-99.99,dwt +perl,2013-08-01 02:49:00,
2013-07-31 19:54:00,62.4,23.1,24.93,West,270,16.0,-999.0,22,-99.99,,,-99.99,dwt +perl,2013-08-01 02:54:00,
2013-07-31 19:59:00,62.4,20.8,24.94,West,278,17.0,-999.0,20,-99.99,,,-99.99,dwt +perl,2013-08-01 02:59:00,
2013-07-31 20:04:00,62.2,19.4,24.94,West,276,12.0,-999.0,19,-99.99,,,-99.99,dwt +perl,2013-08-01 03:04:00,
2013-07-31 20:09:00,62.1,19.4,24.94,WNW,291,16.0,-999.0,19,-99.99,,,-99.99,dwt +perl,2013-08-01 03:09:00,
2013-07-31 20:14:00,62.1,18.1,24.94,West,272,12.0,-999.0,18,-99.99,,,-99.99,dwt +perl,2013-08-01 03:14:00,
2013-07-31 20:19:00,61.7,16.5,24.94,WNW,285,9.0,-999.0,17,-99.99,,,-99.99,dwt +perl,2013-08-01 03:19:00,
2013-07-31 20:24:00,61.2,16.0,24.94,WNW,287,14.0,-999.0,17,-99.99,,,-99.99,dwt +perl,2013-08-01 03:24:00,
2013-07-31 20:29:00,60.9,15.8,24.94,WNW,283,18.0,-999.0,17,-99.99,,,-99.99,dwt +perl,2013-08-01 03:29:00,
2013-07-31 20:34:00,61.0,14.5,24.94,West,270,16.0,-999.0,16,-99.99,,,-99.99,dwt +perl,2013-08-01 03:34:00,
2013-07-31 20:39:00,60.5,5.8,24.94,WSW,258,12.0,-999.0,11,-99.99,,,-99.99,dwt +perl,2013-08-01 03:39:00,
2013-07-31 20:44:00,60.3,5.6,24.94,West,276,16.0,-999.0,11,-99.99,,,-99.99,dwt +perl,2013-08-01 03:44:00,
2013-07-31 20:49:00,60.2,7.4,24.94,West,260,11.0,-999.0,12,-99.99,,,-99.99,dwt +perl,2013-08-01 03:49:00,
2013-07-31 20:54:00,59.7,8.8,24.95,West,276,18.0,-999.0,13,-99.99,,,-99.99,dwt +perl,2013-08-01 03:54:00,
2013-07-31 20:59:00,59.5,11.8,24.94,West,275,13.0,-999.0,15,-99.99,,,-99.99,dwt +perl,2013-08-01 03:59:00,
2013-07-31 21:04:00,58.0,14.8,24.95,West,274,16.0,-999.0,18,-99.99,,,-99.99,dwt +perl,2013-08-01 04:04:00,
2013-07-31 21:09:00,58.5,11.0,24.95,West,273,16.0,-999.0,15,-99.99,,,-99.99,dwt +perl,2013-08-01 04:09:00,
2013-07-31 21:14:00,58.7,14.0,24.95,West,276,15.0,-999.0,17,-99.99,,,-99.99,dwt +perl,2013-08-01 04:14:00,
2013-07-31 21:19:00,59.1,15.6,24.95,West,266,8.0,-999.0,18,-99.99,,,-99.99,dwt +perl,2013-08-01 04:19:00,
2013-07-31 21:24:00,58.9,16.7,24.96,WSW,254,12.0,-999.0,19,-99.99,,,-99.99,dwt +perl,2013-08-01 04:24:00,
2013-07-31 21:29:00,59.3,17.1,24.96,West,280,14.0,-999.0,19,-99.99,,,-99.99,dwt +perl,2013-08-01 04:29:00,
2013-07-31 21:34:00,59.4,19.5,24.96,West,278,15.0,-999.0,21,-99.99,,,-99.99,dwt +perl,2013-08-01 04:34:00,
2013-07-31 21:39:00,59.3,22.5,24.96,North,359,15.0,-999.0,24,-99.99,,,-99.99,dwt +perl,2013-08-01 04:39:00,
2013-07-31 21:44:00,59.4,22.6,24.96,WNW,285,12.0,-999.0,24,-99.99,,,-99.99,dwt +perl,2013-08-01 04:44:00,
2013-07-31 21:49:00,59.4,24.5,24.96,West,278,13.0,-999.0,26,-99.99,,,-99.99,dwt +perl,2013-08-01 04:49:00,
2013-07-31 21:54:00,59.3,19.4,24.96,West,264,14.0,-999.0,21,-99.99,,,-99.99,dwt +perl,2013-08-01 04:54:00,
2013-07-31 21:59:00,59.3,22.5,24.96,West,268,14.0,-999.0,24,-99.99,,,-99.99,dwt +perl,2013-08-01 04:59:00,
2013-07-31 22:04:00,59.2,21.4,24.96,NNW,328,15.0,-999.0,23,-99.99,,,-99.99,dwt +perl,2013-08-01 05:04:00,
2013-07-31 22:09:00,59.1,23.3,24.96,WSW,243,11.0,-999.0,25,-99.99,,,-99.99,dwt +perl,2013-08-01 05:09:00,
2013-07-31 22:14:00,58.9,22.2,24.96,WNW,283,14.0,-999.0,24,-99.99,,,-99.99,dwt +perl,2013-08-01 05:14:00,
2013-07-31 22:19:00,58.8,24.9,24.96,West,281,14.0,-999.0,27,-99.99,,,-99.99,dwt +perl,2013-08-01 05:19:00,
2013-07-31 22:24:00,58.8,24.9,24.96,WNW,289,13.0,-999.0,27,-99.99,,,-99.99,dwt +perl,2013-08-01 05:24:00,
2013-07-31 22:29:00,58.6,26.4,24.96,WNW,285,19.0,-999.0,29,-99.99,,,-99.99,dwt +perl,2013-08-01 05:29:00,
2013-07-31 22:34:00,58.8,26.6,24.96,WNW,298,11.0,-999.0,29,-99.99,,,-99.99,dwt +perl,2013-08-01 05:34:00,
2013-07-31 22:39:00,58.8,26.6,24.96,WNW,285,13.0,-999.0,29,-99.99,,,-99.99,dwt +perl,2013-08-01 05:39:00,
2013-07-31 22:44:00,59.5,26.4,24.96,West,267,15.0,-999.0,28,-99.99,,,-99.99,dwt +perl,2013-08-01 05:44:00,
2013-07-31 22:49:00,59.8,26.6,24.96,WNW,285,12.0,-999.0,28,-99.99,,,-99.99,dwt +perl,2013-08-01 05:49:00,
2013-07-31 22:54:00,59.8,26.6,24.96,WNW,287,12.0,-999.0,28,-99.99,,,-99.99,dwt +perl,2013-08-01 05:54:00,
2013-07-31 22:59:00,59.8,26.6,24.96,WNW,289,9.0,-999.0,28,-99.99,,,-99.99,dwt +perl,2013-08-01 05:59:00,
2013-07-31 23:04:00,59.5,27.2,24.96,WNW,282,12.0,-999.0,29,-99.99,,,-99.99,dwt +perl,2013-08-01 06:04:00,
2013-07-31 23:09:00,59.5,27.2,24.96,West,272,12.0,-999.0,29,-99.99,,,-99.99,dwt +perl,2013-08-01 06:09:00,
2013-07-31 23:14:00,59.6,26.5,24.96,West,274,13.0,-999.0,28,-99.99,,,-99.99,dwt +perl,2013-08-01 06:14:00,
2013-07-31 23:19:00,59.7,26.5,24.95,West,274,9.0,-999.0,28,-99.99,,,-99.99,dwt +perl,2013-08-01 06:19:00,
2013-07-31 23:24:00,59.5,27.2,24.95,WNW,283,10.0,-999.0,29,-99.99,,,-99.99,dwt +perl,2013-08-01 06:24:00,
2013-07-31 23:29:00,59.5,27.2,24.96,West,276,14.0,-999.0,29,-99.99,,,-99.99,dwt +perl,2013-08-01 06:29:00,
2013-07-31 23:34:00,59.5,28.0,24.96,WNW,287,12.0,-999.0,30,-99.99,,,-99.99,dwt +perl,2013-08-01 06:34:00,
2013-07-31 23:39:00,59.2,27.8,24.95,West,263,9.0,-999.0,30,-99.99,,,-99.99,dwt +perl,2013-08-01 06:39:00,
2013-07-31 23:44:00,59.1,27.7,24.96,NW,304,11.0,-999.0,30,-99.99,,,-99.99,dwt +perl,2013-08-01 06:44:00,
2013-07-31 23:49:00,58.9,28.3,24.95,WNW,284,11.0,-999.0,31,-99.99,,,-99.99,dwt +perl,2013-08-01 06:49:00,
2013-07-31 23:54:00,58.8,28.2,24.95,West,268,13.0,-999.0,31,-99.99,,,-99.99,dwt +perl,2013-08-01 06:54:00,
2013-07-31 23:59:00,58.7,28.1,24.95,WNW,302,9.0,-999.0,31,-99.99,,,-99.99,dwt +perl,2013-08-01 06:59:00,